Time;durP1;ratioP1;P1;durP2;ratioP2;P2;SDS_P1;SDS_P2;PMS_P1;PMS_P2;Temp;Humidity;BMP_temperature;BMP_pressure;BME280_temperature;BME280_humidity;BME280_pressure;Samples;Min_cycle;Max_cycle;Signal;HPM_P1;HPM_P2
2022/09/23 00:01:47;;;;;;;;;;;;;;;13.69;59.09;98881.78;5072245;28;19960;-49
2022/09/23 00:04:13;;;;;;;;;;;;;;;13.84;59.54;98879.63;5072199;28;19921;-49
2022/09/23 00:06:38;;;;;;;;;;;;;;;13.88;59.35;98883.44;5072132;28;20463;-49
2022/09/23 00:09:04;;;;;;;;;;;;;;;13.95;59.40;98880.75;5072077;28;19931;-49
2022/09/23 00:11:29;;;;;;;;;;;;;;;13.97;58.94;98881.34;5054047;28;20336;-51
2022/09/23 00:13:56;;;;;;;;;;;;;;;14.05;59.01;98875.78;5072160;28;19917;-51
2022/09/23 00:16:24;;;;;;;;;;;;;;;14.14;58.73;98878.94;5054031;28;19917;-51
2022/09/23 00:18:50;;;;;;;;;;;;;;;14.15;58.89;98885.84;5072099;28;19917;-51
2022/09/23 00:21:16;;;;;;;;;;;;;;;14.22;59.00;98881.28;5072052;28;20461;-51
2022/09/23 00:23:42;;;;;;;;;;;;;;;14.31;58.76;98880.00;5072295;28;19927;-51
2022/09/23 00:26:09;;;;;;;;;;;;;;;14.12;58.70;98878.34;5071972;28;20286;-51
2022/09/23 00:28:34;;;;;;;;;;;;;;;13.70;58.84;98886.88;5053932;28;19925;-50
2022/09/23 00:31:04;;;;;;;;;;;;;;;13.28;60.42;98883.88;5071663;28;20313;-51
2022/09/23 00:33:29;;;;;;;;;;;;;;;12.91;61.54;98885.50;5053951;28;19923;-51
2022/09/23 00:35:58;;;;;;;;;;;;;;;12.63;62.85;98889.25;5071879;28;20385;-50
2022/09/23 00:38:24;;;;;;;;;;;;;;;12.43;63.31;98881.44;5053876;28;19927;-51
2022/09/23 00:40:49;;;;;;;;;;;;;;;12.27;63.93;98889.78;5071833;28;20333;-51
2022/09/23 00:43:14;;;;;;;;;;;;;;;12.16;64.31;98889.41;5071770;28;19920;-51
2022/09/23 00:45:44;;;;;;;;;;;;;;;12.02;65.03;98889.63;5071714;28;19923;-51
2022/09/23 00:48:13;;;;;;;;;;;;;;;11.85;65.37;98890.03;5071765;28;19995;-51
2022/09/23 00:50:41;;;;;;;;;;;;;;;11.76;66.12;98899.94;5053707;28;19920;-51
2022/09/23 00:53:10;;;;;;;;;;;;;;;11.78;65.67;98897.09;5071681;28;19970;-51
2022/09/23 00:55:38;;;;;;;;;;;;;;;11.93;65.53;98895.13;5071596;28;19923;-51
2022/09/23 00:58:05;;;;;;;;;;;;;;;12.18;65.28;98905.00;5071719;28;20471;-51
2022/09/23 01:00:32;;;;;;;;;;;;;;;12.44;64.84;98896.22;5053593;28;19924;-51
2022/09/23 01:02:59;;;;;;;;;;;;;;;12.78;64.68;98897.72;5071640;28;19916;-51
2022/09/23 01:05:25;;;;;;;;;;;;;;;12.87;63.37;98889.56;5071549;28;19926;-52
2022/09/23 01:07:52;;;;;;;;;;;;;;;12.75;63.23;98900.75;5053647;28;19921;-51
2022/09/23 01:10:18;;;;;;;;;;;;;;;12.76;63.26;98880.53;5071450;28;20318;-51
2022/09/23 01:12:43;;;;;;;;;;;;;;;12.90;63.22;98883.91;5071556;28;19922;-51
2022/09/23 01:15:18;;;;;;;;;;;;;;;12.98;63.02;98884.47;5075002;28;19916;-50
2022/09/23 01:17:51;;;;;;;;;;;;;;;13.03;62.92;98878.56;5075176;28;20306;-51
2022/09/23 01:20:26;;;;;;;;;;;;;;;13.08;62.68;98875.28;5075088;28;20417;-51
2022/09/23 01:23:05;;;;;;;;;;;;;;;13.02;62.81;98873.47;5075089;28;19999;-51
2022/09/23 01:25:49;;;;;;;;;;;;;;;12.83;64.14;98877.84;5057051;28;19922;-50
2022/09/23 01:28:33;;;;;;;;;;;;;;;12.37;66.34;98875.19;5074994;28;19916;-51
2022/09/23 01:31:05;;;;;;;;;;;;;;;12.01;68.02;98869.59;5056558;28;20293;-51
2022/09/23 01:33:38;;;;;;;;;;;;;;;11.83;69.52;98880.72;5074865;28;19917;-51
2022/09/23 01:36:04;;;;;;;;;;;;;;;11.65;69.78;98881.31;5057170;28;20386;-51
2022/09/23 01:38:38;;;;;;;;;;;;;;;11.49;70.15;98879.88;5074766;28;19927;-51
2022/09/23 01:41:04;;;;;;;;;;;;;;;11.39;70.31;98875.84;5074692;28;20348;-51
2022/09/23 01:43:29;;;;;;;;;;;;;;;11.37;70.33;98884.97;5056718;28;19916;-50
2022/09/23 01:45:58;;;;;;;;;;;;;;;11.33;70.31;98884.53;5056618;28;20012;-51
2022/09/23 01:48:24;;;;;;;;;;;;;;;11.29;70.34;98888.59;5074559;28;19927;-50
2022/09/23 01:50:57;;;;;;;;;;;;;;;11.30;70.52;98881.50;5074466;28;19916;-51
2022/09/23 01:53:32;;;;;;;;;;;;;;;11.38;70.21;98882.09;5074541;28;20431;-51
2022/09/23 01:56:24;;;;;;;;;;;;;;;11.45;70.13;98884.75;5074395;28;19923;-51
2022/09/23 01:59:00;;;;;;;;;;;;;;;11.58;70.07;98884.75;5050725;28;19916;-51
2022/09/23 02:01:47;;;;;;;;;;;;;;;11.62;69.78;98876.47;5074611;28;19947;-50
2022/09/23 02:04:17;;;;;;;;;;;;;;;11.56;69.33;98878.09;5074397;28;19974;-51
2022/09/23 02:06:47;;;;;;;;;;;;;;;11.50;69.75;98869.19;5074334;28;19959;-51
2022/09/23 02:09:18;;;;;;;;;;;;;;;11.53;69.46;98871.44;5074190;28;19928;-51
2022/09/23 02:11:47;;;;;;;;;;;;;;;11.52;69.61;98866.38;5074146;28;19999;-51
2022/09/23 02:14:14;;;;;;;;;;;;;;;11.52;69.38;98867.16;5074145;28;19916;-51
2022/09/23 02:16:44;;;;;;;;;;;;;;;11.55;69.29;98872.03;5074011;28;19921;-51
2022/09/23 02:19:12;;;;;;;;;;;;;;;11.57;69.45;98863.94;5074016;28;19987;-51
2022/09/23 02:21:46;;;;;;;;;;;;;;;11.73;70.17;98865.34;5055940;28;19917;-51
2022/09/23 02:24:13;;;;;;;;;;;;;;;11.98;69.61;98860.28;5073751;28;19917;-50
2022/09/23 02:26:44;;;;;;;;;;;;;;;11.99;69.20;98875.06;5073129;28;19916;-52
2022/09/23 02:29:17;;;;;;;;;;;;;;;11.86;68.79;98865.34;5073755;28;20015;-51
2022/09/23 02:31:48;;;;;;;;;;;;;;;11.72;68.65;98867.16;5073568;28;19924;-51
2022/09/23 02:34:14;;;;;;;;;;;;;;;11.64;68.70;98867.38;5073711;28;19927;-50
2022/09/23 02:36:48;;;;;;;;;;;;;;;11.64;69.10;98864.75;5073903;28;19917;-51
2022/09/23 02:39:14;;;;;;;;;;;;;;;11.71;68.82;98865.56;5073646;28;19931;-51
2022/09/23 02:42:03;;;;;;;;;;;;;;;11.77;68.80;98859.50;5055623;28;19923;-51
2022/09/23 02:44:28;;;;;;;;;;;;;;;11.67;68.51;98859.09;5073516;28;19917;-51
2022/09/23 02:46:56;;;;;;;;;;;;;;;11.71;68.87;98849.78;5055431;28;19962;-50
2022/09/23 02:49:22;;;;;;;;;;;;;;;11.95;69.67;98860.69;5073348;28;19921;-51
2022/09/23 02:51:47;;;;;;;;;;;;;;;12.17;68.78;98859.47;5073357;28;19982;-51
2022/09/23 02:54:16;;;;;;;;;;;;;;;12.49;68.60;98853.47;5055309;28;19920;-51
2022/09/23 02:56:42;;;;;;;;;;;;;;;12.65;67.78;98860.09;5073222;28;19916;-51
2022/09/23 02:59:08;;;;;;;;;;;;;;;12.66;67.28;98853.84;5073198;28;20796;-51
2022/09/23 03:02:06;;;;;;;;;;;;;;;12.66;67.05;98859.09;5073128;28;19920;-50
2022/09/23 03:04:37;;;;;;;;;;;;;;;12.65;67.07;98857.47;5011209;28;19961;-50
2022/09/23 03:07:21;;;;;;;;;;;;;;;12.86;66.70;98857.16;5011085;28;19960;-51
2022/09/23 03:09:52;;;;;;;;;;;;;;;12.92;66.01;98861.59;5010995;28;19917;-52
2022/09/23 03:12:19;;;;;;;;;;;;;;;12.84;65.67;98861.00;5010975;28;19924;-51
2022/09/23 03:14:53;;;;;;;;;;;;;;;12.93;66.09;98859.75;5011239;28;20320;-51
2022/09/23 03:17:19;;;;;;;;;;;;;;;13.39;65.24;98856.06;5011021;28;19918;-51
2022/09/23 03:20:03;;;;;;;;;;;;;;;13.65;64.24;98868.22;5010844;28;19917;-51
2022/09/23 03:22:34;;;;;;;;;;;;;;;13.76;63.33;98858.78;5010847;28;19917;-51
2022/09/23 03:25:06;;;;;;;;;;;;;;;13.83;63.17;98861.38;5010958;28;19917;-51
2022/09/23 03:27:33;;;;;;;;;;;;;;;14.02;62.31;98856.94;4994356;28;19924;-51
2022/09/23 03:29:59;;;;;;;;;;;;;;;14.08;61.64;98858.69;4994338;28;19917;-51
2022/09/23 03:32:26;;;;;;;;;;;;;;;14.08;61.56;98854.22;4994142;28;19921;-51
2022/09/23 03:34:54;;;;;;;;;;;;;;;14.16;61.43;98855.78;5010854;28;19921;-50
2022/09/23 03:37:22;;;;;;;;;;;;;;;14.17;60.65;98847.63;5010423;28;20029;-51
2022/09/23 03:39:53;;;;;;;;;;;;;;;14.19;60.85;98848.22;5006146;28;19940;-51
2022/09/23 03:42:24;;;;;;;;;;;;;;;14.25;60.31;98846.53;5032605;28;20395;-51
2022/09/23 03:44:55;;;;;;;;;;;;;;;14.30;60.17;98857.25;5032611;28;19924;-52
2022/09/23 03:47:20;;;;;;;;;;;;;;;14.12;59.89;98851.97;5032562;28;19952;-51
2022/09/23 03:49:47;;;;;;;;;;;;;;;14.08;59.46;98846.31;5032457;28;19961;-51
2022/09/23 03:52:16;;;;;;;;;;;;;;;13.93;59.91;98845.88;5031128;28;19925;-51
2022/09/23 03:54:42;;;;;;;;;;;;;;;14.08;60.30;98846.31;5032441;28;19917;-51
2022/09/23 03:57:09;;;;;;;;;;;;;;;14.33;59.94;98848.91;5032367;28;19917;-51
2022/09/23 03:59:34;;;;;;;;;;;;;;;14.53;59.46;98842.56;5031092;28;19928;-51
2022/09/23 04:02:01;;;;;;;;;;;;;;;14.57;59.11;98844.56;5032326;28;20373;-51
2022/09/23 04:04:27;;;;;;;;;;;;;;;14.62;59.13;98846.53;5032305;28;20298;-51
2022/09/23 04:06:53;;;;;;;;;;;;;;;14.77;58.97;98846.16;5032233;28;19917;-51
2022/09/23 04:09:19;;;;;;;;;;;;;;;14.86;58.70;98851.94;5032151;28;19921;-51
2022/09/23 04:11:44;;;;;;;;;;;;;;;14.81;58.38;98857.06;5032236;28;19948;-52
2022/09/23 04:14:11;;;;;;;;;;;;;;;14.70;58.72;98853.34;5032169;28;20302;-50
2022/09/23 04:16:36;;;;;;;;;;;;;;;14.45;58.31;98851.59;5032178;28;20308;-51
2022/09/23 04:19:02;;;;;;;;;;;;;;;14.08;58.49;98858.69;5032189;28;19917;-51
2022/09/23 04:21:30;;;;;;;;;;;;;;;13.81;59.10;98863.44;5030785;28;19917;-50
2022/09/23 04:23:56;;;;;;;;;;;;;;;13.76;59.63;98862.25;5032333;28;19924;-51
2022/09/23 04:26:24;;;;;;;;;;;;;;;13.56;59.26;98861.59;5032089;28;19939;-51
2022/09/23 04:28:49;;;;;;;;;;;;;;;13.57;59.89;98868.50;5030740;28;19939;-50
2022/09/23 04:31:14;;;;;;;;;;;;;;;13.47;59.84;98866.34;5044803;28;20425;-50
2022/09/23 04:33:40;;;;;;;;;;;;;;;13.36;60.38;98870.47;5071940;28;20448;-50
2022/09/23 04:36:06;;;;;;;;;;;;;;;13.50;60.80;98878.28;5053891;28;19920;-49
2022/09/23 04:38:31;;;;;;;;;;;;;;;13.69;60.14;98879.97;5071917;28;20421;-51
2022/09/23 04:40:59;;;;;;;;;;;;;;;13.79;60.09;98877.63;5071853;28;19916;-51
2022/09/23 04:43:25;;;;;;;;;;;;;;;13.95;60.31;98871.00;5071788;28;19917;-51
2022/09/23 04:45:58;;;;;;;;;;;;;;;14.13;59.72;98872.06;5053809;28;19923;-51
2022/09/23 04:48:23;;;;;;;;;;;;;;;14.34;59.49;98881.38;5072710;28;19928;-51
2022/09/23 04:50:49;;;;;;;;;;;;;;;14.53;58.95;98877.72;5075621;28;20398;-51
2022/09/23 04:53:15;;;;;;;;;;;;;;;14.51;58.09;98874.47;5075623;28;19920;-52
2022/09/23 04:55:42;;;;;;;;;;;;;;;14.27;58.02;98878.81;5075586;28;19927;-51
2022/09/23 04:58:08;;;;;;;;;;;;;;;14.11;58.33;98885.47;5075512;28;19948;-52
2022/09/23 05:00:34;;;;;;;;;;;;;;;13.91;58.17;98885.66;5075774;28;20395;-52
2022/09/23 05:03:00;;;;;;;;;;;;;;;13.71;58.47;98882.38;5075464;28;20015;-51
2022/09/23 05:05:25;;;;;;;;;;;;;;;13.54;58.73;98888.19;5075370;28;19970;-51
2022/09/23 05:07:53;;;;;;;;;;;;;;;13.41;58.83;98893.56;5075327;28;19924;-51
2022/09/23 05:10:18;;;;;;;;;;;;;;;13.43;59.37;98888.88;5075201;28;19955;-52
2022/09/23 05:12:44;;;;;;;;;;;;;;;13.56;59.79;98887.97;5075249;28;20337;-49
2022/09/23 05:15:09;;;;;;;;;;;;;;;13.90;59.91;98891.94;5075181;28;19942;-49
2022/09/23 05:17:36;;;;;;;;;;;;;;;14.16;59.48;98882.97;5075178;28;19927;-50
2022/09/23 05:20:01;;;;;;;;;;;;;;;14.38;58.84;98891.25;5075050;28;19983;-49
2022/09/23 05:22:28;;;;;;;;;;;;;;;14.43;58.27;98884.50;5075056;28;19917;-49
2022/09/23 05:24:53;;;;;;;;;;;;;;;14.54;58.15;98889.88;5057107;28;19927;-50
2022/09/23 05:27:19;;;;;;;;;;;;;;;14.55;57.75;98885.41;5074965;28;20019;-49
2022/09/23 05:29:45;;;;;;;;;;;;;;;14.25;57.54;98880.88;5074935;28;19924;-49
2022/09/23 05:32:10;;;;;;;;;;;;;;;14.15;58.39;98881.38;5074682;28;19930;-49
2022/09/23 05:34:35;;;;;;;;;;;;;;;14.06;58.31;98876.59;5075066;28;19983;-50
2022/09/23 05:37:02;;;;;;;;;;;;;;;13.67;59.26;98879.38;5074842;28;20397;-50
2022/09/23 05:39:28;;;;;;;;;;;;;;;13.31;60.69;98875.56;5074811;28;19995;-48
2022/09/23 05:41:54;;;;;;;;;;;;;;;13.14;61.45;98872.63;5074893;28;19921;-49
2022/09/23 05:44:20;;;;;;;;;;;;;;;13.03;61.83;98881.19;5074902;28;20302;-50
2022/09/23 05:46:45;;;;;;;;;;;;;;;12.93;62.02;98878.19;5074639;28;19924;-49
2022/09/23 05:49:11;;;;;;;;;;;;;;;12.93;62.00;98879.00;5074554;28;19924;-50
2022/09/23 05:51:39;;;;;;;;;;;;;;;13.04;61.96;98882.81;5074661;28;20372;-50
2022/09/23 05:54:04;;;;;;;;;;;;;;;13.25;61.89;98876.38;5074534;28;19920;-50
2022/09/23 05:56:31;;;;;;;;;;;;;;;13.50;62.23;98880.91;5074519;28;20434;-49
2022/09/23 05:58:57;;;;;;;;;;;;;;;13.94;62.76;98879.97;5074328;28;19917;-49
2022/09/23 06:01:24;;;;;;;;;;;;;;;14.58;62.43;98879.72;5074376;28;19920;-48
2022/09/23 06:03:50;;;;;;;;;;;;;;;14.93;60.72;98876.41;5074371;28;20507;-49
2022/09/23 06:06:18;;;;;;;;;;;;;;;15.08;60.46;98883.97;5074265;28;19962;-49
2022/09/23 06:08:44;;;;;;;;;;;;;;;15.12;59.61;98874.56;5074286;28;20437;-50
2022/09/23 06:11:11;;;;;;;;;;;;;;;15.34;59.79;98878.28;5056169;28;19925;-50
2022/09/23 06:13:37;;;;;;;;;;;;;;;15.54;58.90;98883.28;5074225;28;19942;-49
2022/09/23 06:16:07;;;;;;;;;;;;;;;15.68;58.48;98878.59;5073994;28;19959;-50
2022/09/23 06:18:33;;;;;;;;;;;;;;;15.96;57.85;98880.59;5056109;28;19946;-49
2022/09/23 06:21:02;;;;;;;;;;;;;;;16.26;57.18;98869.06;5073976;28;19939;-49
2022/09/23 06:23:28;;;;;;;;;;;;;;;16.79;56.36;98872.47;5074009;28;19916;-50
2022/09/23 06:25:58;;;;;;;;;;;;;;;16.97;55.80;98872.31;5073902;28;19946;-49
2022/09/23 06:28:23;;;;;;;;;;;;;;;17.46;55.53;98871.03;5073851;28;20012;-51
2022/09/23 06:30:49;;;;;;;;;;;;;;;17.77;54.33;98877.63;5055458;28;20016;-51
2022/09/23 06:33:15;;;;;;;;;;;;;;;17.80;53.96;98869.19;5073827;28;19931;-52
2022/09/23 06:35:40;;;;;;;;;;;;;;;18.18;54.16;98867.63;5055714;28;19923;-51
2022/09/23 06:38:06;;;;;;;;;;;;;;;18.55;53.02;98862.53;5073655;28;19952;-52
2022/09/23 06:40:31;;;;;;;;;;;;;;;18.90;52.65;98857.88;5055661;28;19993;-49
2022/09/23 06:42:58;;;;;;;;;;;;;;;19.19;51.41;98849.63;5073511;28;20003;-47
2022/09/23 06:45:24;;;;;;;;;;;;;;;19.42;50.86;98859.94;5073672;28;19917;-47
2022/09/23 06:47:54;;;;;;;;;;;;;;;19.65;50.63;98855.31;5073514;28;20461;-49
2022/09/23 06:50:20;;;;;;;;;;;;;;;19.79;50.10;98859.19;5073321;28;20018;-47
2022/09/23 06:52:55;;;;;;;;;;;;;;;20.11;49.64;98850.31;5073410;28;19991;-47
2022/09/23 06:55:26;;;;;;;;;;;;;;;20.36;49.11;98854.94;5073254;28;19916;-50
2022/09/23 06:57:51;;;;;;;;;;;;;;;20.71;48.88;98853.53;5073264;28;19938;-48
2022/09/23 07:00:17;;;;;;;;;;;;;;;21.05;48.09;98850.41;5073155;28;19916;-47
2022/09/23 07:02:43;;;;;;;;;;;;;;;21.37;48.11;98857.34;5073200;28;20390;-47
2022/09/23 07:05:08;;;;;;;;;;;;;;;22.09;47.45;98850.06;5072992;28;19923;-48
2022/09/23 07:07:36;;;;;;;;;;;;;;;22.64;45.99;98859.00;5072979;28;20361;-46
2022/09/23 07:10:01;;;;;;;;;;;;;;;22.71;45.28;98850.66;5072987;28;19917;-49
2022/09/23 07:12:27;;;;;;;;;;;;;;;23.31;45.05;98856.72;5054052;28;19942;-49
2022/09/23 07:14:52;;;;;;;;;;;;;;;23.84;43.92;98857.88;5054983;28;19916;-48
2022/09/23 07:17:18;;;;;;;;;;;;;;;24.35;43.47;98862.72;5072838;28;19920;-49
2022/09/23 07:19:43;;;;;;;;;;;;;;;24.28;42.38;98859.56;5072828;28;19927;-50
2022/09/23 07:22:09;;;;;;;;;;;;;;;23.93;43.23;98857.00;5054777;28;20015;-47
2022/09/23 07:24:34;;;;;;;;;;;;;;;24.03;42.79;98858.78;5072926;28;20007;-48
2022/09/23 07:27:01;;;;;;;;;;;;;;;23.88;42.25;98862.38;5072682;28;19959;-48
2022/09/23 07:29:27;;;;;;;;;;;;;;;24.03;42.52;98857.97;5072609;28;20424;-49
2022/09/23 07:31:52;;;;;;;;;;;;;;;24.48;42.11;98853.94;5072138;28;19960;-48
2022/09/23 07:34:17;;;;;;;;;;;;;;;24.95;41.89;98853.34;5054660;28;19966;-49
2022/09/23 07:36:43;;;;;;;;;;;;;;;25.37;40.63;98859.72;5072569;28;19920;-47
2022/09/23 07:39:10;;;;;;;;;;;;;;;25.69;40.59;98856.22;5072408;28;19924;-50
2022/09/23 07:41:36;;;;;;;;;;;;;;;25.82;40.50;98866.22;5072450;28;19917;-49
2022/09/23 07:44:01;;;;;;;;;;;;;;;26.10;39.79;98864.38;5072496;28;19955;-48
2022/09/23 07:46:28;;;;;;;;;;;;;;;25.93;40.41;98848.03;5054446;28;20005;-48
2022/09/23 07:48:54;;;;;;;;;;;;;;;26.44;39.39;98857.78;5072394;28;20026;-48
2022/09/23 07:51:31;;;;;;;;;;;;;;;26.77;38.96;98871.13;5072412;28;19999;-48
2022/09/23 07:53:57;;;;;;;;;;;;;;;26.98;38.51;98849.91;5072348;28;19916;-48
2022/09/23 07:56:30;;;;;;;;;;;;;;;27.60;37.70;98849.25;5072563;28;19950;-48
2022/09/23 07:58:59;;;;;;;;;;;;;;;28.15;36.90;98852.69;5072246;28;19923;-49
2022/09/23 08:01:32;;;;;;;;;;;;;;;28.48;36.85;98856.59;5072285;28;19932;-49
2022/09/23 08:04:04;;;;;;;;;;;;;;;28.32;35.60;98841.94;5072154;28;20006;-48
2022/09/23 08:06:33;;;;;;;;;;;;;;;28.27;36.39;98842.06;5072397;28;19916;-49
2022/09/23 08:09:17;;;;;;;;;;;;;;;28.67;35.89;98847.41;5071995;28;19926;-50
2022/09/23 08:11:42;;;;;;;;;;;;;;;28.39;35.03;98820.69;5072185;28;19917;-50
2022/09/23 08:14:09;;;;;;;;;;;;;;;28.02;36.44;98846.28;5072118;28;19916;-49
2022/09/23 08:16:34;;;;;;;;;;;;;;;28.54;36.42;98846.47;5072048;28;19932;-50
2022/09/23 08:19:01;;;;;;;;;;;;;;;29.53;34.42;98840.41;5072106;28;20443;-48
2022/09/23 08:21:27;;;;;;;;;;;;;;;29.94;34.39;98841.72;5071976;28;19917;-48
2022/09/23 08:23:52;;;;;;;;;;;;;;;29.56;33.10;98842.47;5073842;28;19920;-49
2022/09/23 08:26:18;;;;;;;;;;;;;;;28.69;34.24;98839.78;5076202;28;20294;-50
2022/09/23 08:28:44;;;;;;;;;;;;;;;28.24;35.64;98842.72;5058142;28;19928;-49
2022/09/23 08:31:13;;;;;;;;;;;;;;;28.26;36.04;98840.50;5075872;28;19920;-50
2022/09/23 08:33:39;;;;;;;;;;;;;;;27.97;36.20;98830.22;5076417;28;19971;-48
2022/09/23 08:36:05;;;;;;;;;;;;;;;27.78;36.31;98811.59;5076222;28;19970;-48
2022/09/23 08:38:30;;;;;;;;;;;;;;;27.00;37.41;98809.19;5076067;28;20307;-50
2022/09/23 08:41:22;;;;;;;;;;;;;;;25.93;39.62;98826.50;5075907;28;19916;-49
2022/09/23 08:43:51;;;;;;;;;;;;;;;25.38;40.90;98842.53;5052174;28;19965;-48
2022/09/23 08:46:20;;;;;;;;;;;;;;;25.11;41.52;98826.00;5075793;28;19969;-49
2022/09/23 08:48:47;;;;;;;;;;;;;;;25.39;41.15;98799.22;5057790;28;20345;-48
2022/09/23 08:51:28;;;;;;;;;;;;;;;25.63;40.86;98820.56;5057716;28;19923;-48
2022/09/23 08:53:53;;;;;;;;;;;;;;;26.02;39.43;98819.34;5057644;28;20073;-49
2022/09/23 08:56:21;;;;;;;;;;;;;;;26.51;39.22;98809.72;5075555;28;19999;-49
2022/09/23 08:58:53;;;;;;;;;;;;;;;26.74;38.06;98809.78;5075550;28;19916;-50
2022/09/23 09:01:23;;;;;;;;;;;;;;;26.82;38.42;98817.16;5075735;28;20050;-50
2022/09/23 09:03:53;;;;;;;;;;;;;;;27.00;37.59;98801.13;5075465;28;19952;-49
2022/09/23 09:06:22;;;;;;;;;;;;;;;26.95;37.45;98798.56;5075413;28;20445;-49
2022/09/23 09:11:19;;;;;;;23.13;3.03;;;;;;;24.48;42.41;98799.50;5109699;27;20416;-47
2022/09/23 09:14:11;;;;;;;7.07;1.90;;;;;;;24.41;43.00;98799.84;5108369;28;20502;-45
2022/09/23 09:17:09;;;;;;;9.13;2.53;;;;;;;24.66;43.01;98796.03;5098465;28;20048;-44
2022/09/23 09:19:54;;;;;;;11.55;2.33;;;;;;;24.88;41.84;98794.66;5097148;28;20035;-47
2022/09/23 09:22:50;;;;;;;14.85;2.38;;;;;;;25.36;41.18;98788.28;5108193;28;20398;-46
2022/09/23 09:25:24;;;;;;;11.60;3.13;;;;;;;25.90;40.06;98811.78;5109497;28;20020;-46
2022/09/23 09:27:52;;;;;;;8.90;2.30;;;;;;;26.56;38.86;98816.91;5109396;28;20016;-46
2022/09/23 09:30:21;;;;;;;7.43;2.10;;;;;;;26.62;37.81;98771.84;5107905;28;20028;-46
2022/09/23 09:32:56;;;;;;;11.52;2.65;;;;;;;26.42;38.78;98790.03;5108224;28;20027;-46
2022/09/23 09:35:54;;;;;;;8.18;1.95;;;;;;;26.08;38.76;98783.19;5109662;28;20393;-45
2022/09/23 09:38:20;;;;;;;12.20;2.38;;;;;;;25.79;39.32;98786.13;5109270;28;20077;-44
2022/09/23 09:40:47;;;;;;;12.15;2.05;;;;;;;25.78;39.05;98787.25;5109124;28;20028;-44
2022/09/23 09:43:22;;;;;;;28.35;3.58;;;;;;;25.66;39.99;98798.47;5109096;28;20019;-44
2022/09/23 09:46:14;;;;;;;10.02;2.28;;;;;;;25.73;38.88;98768.50;5109104;28;20019;-45
2022/09/23 09:48:59;;;;;;;6.53;1.77;;;;;;;26.01;39.22;98769.34;5109354;28;20059;-44
2022/09/23 09:51:28;;;;;;;6.85;2.33;;;;;;;26.76;37.46;98755.63;5109032;28;20500;-46
2022/09/23 09:54:10;;;;;;;22.15;2.75;;;;;;;27.39;37.25;98767.31;5108894;28;20043;-46
2022/09/23 09:56:36;;;;;;;7.53;2.03;;;;;;;27.90;35.39;98760.56;5109181;28;20388;-46
2022/09/23 09:59:22;;;;;;;8.48;2.42;;;;;;;28.34;34.84;98760.66;5108786;28;20015;-46
2022/09/23 10:01:48;;;;;;;17.55;2.25;;;;;;;28.49;34.01;98760.16;5109058;28;20115;-45
2022/09/23 10:04:32;;;;;;;5.07;1.60;;;;;;;28.50;33.30;98732.09;5108721;28;20453;-46
2022/09/23 10:07:14;;;;;;;11.20;1.88;;;;;;;28.35;33.85;98744.13;5108620;28;20036;-46
2022/09/23 10:09:48;;;;;;;3.28;1.70;;;;;;;28.12;34.17;98758.88;5107965;28;20051;-46
2022/09/23 10:12:17;;;;;;;7.93;1.88;;;;;;;27.62;34.59;98746.47;5108584;28;20034;-46
2022/09/23 10:14:44;;;;;;;14.55;3.08;;;;;;;27.46;35.21;98760.34;5107173;28;20056;-46
2022/09/23 10:17:23;;;;;;;6.45;1.80;;;;;;;27.22;35.76;98749.91;5108368;28;20016;-46
2022/09/23 10:20:18;;;;;;;6.40;1.63;;;;;;;27.28;35.71;98746.00;5108397;28;20028;-45
2022/09/23 10:22:45;;;;;;;5.60;1.98;;;;;;;27.44;35.49;98749.09;5080858;28;20036;-44
2022/09/23 10:25:26;;;;;;;8.07;1.60;;;;;;;27.89;34.59;98759.00;5094649;28;20028;-45
2022/09/23 10:27:52;;;;;;;12.70;2.13;;;;;;;27.92;34.18;98760.25;5093259;28;20533;-45
2022/09/23 10:30:24;;;;;;;6.65;2.33;;;;;;;27.76;34.85;98749.06;5094501;28;20066;-46
2022/09/23 10:32:52;;;;;;;4.80;1.70;;;;;;;27.91;34.83;98756.78;5094598;28;20016;-46
2022/09/23 10:35:24;;;;;;;6.65;1.90;;;;;;;28.33;33.88;98749.03;5094532;28;20032;-46
2022/09/23 10:37:58;;;;;;;7.10;1.80;;;;;;;28.75;33.35;98740.50;5094548;28;20035;-46
2022/09/23 10:47:41;;;;;;;3.45;1.50;;;;;;;28.55;33.64;98758.13;5094323;28;20031;-45
2022/09/23 10:50:22;;;;;;;5.45;1.90;;;;;;;28.57;33.95;98755.91;5015200;28;20037;-45
2022/09/23 10:53:02;;;;;;;3.25;1.60;;;;;;;28.73;33.24;98754.31;5015347;28;20130;-46
2022/09/23 10:55:36;;;;;;;11.18;1.67;;;;;;;28.52;33.52;98769.59;5031769;28;20044;-45
2022/09/23 10:58:20;;;;;;;6.32;1.80;;;;;;;28.39;34.07;98758.59;5031843;28;20155;-44
2022/09/23 11:01:11;;;;;;;7.10;2.08;;;;;;;28.63;34.33;98757.34;5031786;28;20527;-46
2022/09/23 11:03:42;;;;;;;14.93;1.98;;;;;;;29.24;32.89;98755.38;5031681;28;20490;-46
2022/09/23 11:06:28;;;;;;;8.88;2.00;;;;;;;28.53;33.84;98761.16;5031450;28;20033;-46
2022/09/23 11:09:13;;;;;;;7.50;2.20;;;;;;;27.68;35.41;98735.22;5031146;28;20036;-45
2022/09/23 11:12:05;;;;;;;4.60;1.60;;;;;;;27.17;36.51;98757.34;5031517;28;20072;-45
2022/09/23 11:14:59;;;;;;;7.38;2.47;;;;;;;27.24;36.57;98755.03;5031390;28;20045;-46
2022/09/23 11:17:25;;;;;;;13.65;3.20;;;;;;;27.16;36.92;98745.75;5031413;28;20454;-46
2022/09/23 11:20:16;;;;;;;7.70;1.75;;;;;;;27.29;36.12;98744.13;5031278;28;20419;-46
2022/09/23 11:23:07;;;;;;;5.70;1.70;;;;;;;27.29;36.38;98742.22;5031293;28;20037;-46
2022/09/23 11:25:50;;;;;;;8.70;2.10;;;;;;;27.42;35.13;98750.53;5065360;28;20056;-46
2022/09/23 11:28:24;;;;;;;4.00;1.60;;;;;;;26.81;35.97;98734.78;5093644;28;20074;-46
2022/09/23 11:31:21;;;;;;;7.35;2.05;;;;;;;26.18;37.07;98741.84;5093363;28;20032;-46
2022/09/23 11:34:08;;;;;;;6.50;2.20;;;;;;;25.68;38.35;98747.91;5074340;28;20505;-44
2022/09/23 11:37:16;;;;;;;11.70;2.35;;;;;;;25.15;39.18;98747.50;5093480;28;20031;-45
2022/09/23 11:40:00;;;;;;;6.15;1.83;;;;;;;24.91;40.17;98743.06;5087918;28;20031;-46
2022/09/23 11:42:37;;;;;;;10.27;1.60;;;;;;;25.02;39.62;98732.97;5093287;28;20055;-46
2022/09/23 11:45:17;;;;;;;5.28;1.60;;;;;;;25.56;38.58;98720.72;5091830;28;20422;-46
2022/09/23 11:48:24;;;;;;;8.00;1.70;;;;;;;25.43;38.88;98733.06;5093224;28;20500;-45
2022/09/23 11:51:16;;;;;;;8.02;1.63;;;;;;;25.76;38.68;98741.03;5093027;28;20020;-45
2022/09/23 11:53:47;;;;;;;13.00;2.50;;;;;;;26.22;37.14;98733.94;5093127;28;20026;-46
2022/09/23 11:56:25;;;;;;;5.75;1.65;;;;;;;26.16;36.94;98719.81;5093023;28;20023;-46
2022/09/23 11:59:24;;;;;;;8.32;1.85;;;;;;;25.85;37.60;98716.94;5093184;28;20552;-46
2022/09/23 12:01:57;;;;;;;10.02;1.80;;;;;;;25.90;37.83;98717.66;5091591;28;20028;-45
2022/09/23 12:04:37;;;;;;;8.77;1.90;;;;;;;26.04;37.52;98692.66;5092919;28;20031;-47
2022/09/23 12:07:11;;;;;;;14.70;2.60;;;;;;;26.11;37.68;98709.16;5092789;28;20020;-47
2022/09/23 12:09:49;;;;;;;11.40;2.27;;;;;;;26.33;37.11;98707.63;5092485;28;20425;-47
2022/09/23 12:12:29;;;;;;;5.80;1.30;;;;;;;26.79;36.22;98707.34;5092673;28;20440;-47
2022/09/23 12:15:04;;;;;;;6.38;1.95;;;;;;;26.99;35.68;98697.19;5091682;28;20039;-46
2022/09/23 12:17:47;;;;;;;12.18;1.95;;;;;;;26.96;35.58;98679.72;5092652;28;20024;-47
2022/09/23 12:20:27;;;;;;;4.70;1.95;;;;;;;27.15;35.43;98709.16;5092582;28;20039;-45
2022/09/23 12:23:14;;;;;;;7.88;4.35;;;;;;;27.57;34.49;98671.13;5091540;28;20039;-47
2022/09/23 12:25:55;;;;;;;6.20;2.63;;;;;;;27.61;34.78;98680.19;5092522;28;20039;-47
2022/09/23 12:28:47;;;;;;;3.03;1.50;;;;;;;27.93;33.83;98672.81;5091152;28;20076;-47
2022/09/23 12:31:20;;;;;;;6.40;2.13;;;;;;;27.93;33.96;98675.50;5092168;28;20028;-46
2022/09/23 12:33:53;;;;;;;4.40;1.55;;;;;;;27.73;34.17;98668.78;5092400;28;20513;-44
2022/09/23 12:36:26;;;;;;;16.83;2.50;;;;;;;27.23;34.21;98664.50;5090955;28;20069;-44
2022/09/23 12:39:00;;;;;;;13.00;2.65;;;;;;;26.56;35.84;98687.69;5090937;28;20024;-46
2022/09/23 12:41:27;;;;;;;;;;;;;;;26.13;35.70;98653.16;5092713;28;20108;-45
2022/09/23 12:43:59;;;;;;;7.53;1.75;;;;;;;25.70;36.61;98686.59;5091921;28;19912;-47
2022/09/23 12:46:26;;;;;;;7.68;1.80;;;;;;;25.40;37.23;98679.91;5092201;28;20397;-46
2022/09/23 12:48:59;;;;;;;8.07;1.90;;;;;;;25.09;38.40;98683.16;5092173;28;20359;-47
2022/09/23 12:52:06;;;;;;;3.22;1.13;;;;;;;24.99;38.79;98691.38;5092076;28;20020;-47
2022/09/23 12:54:31;;;;;;;20.13;2.65;;;;;;;25.14;39.02;98676.88;5091932;28;20501;-47
2022/09/23 12:56:59;;;;;;;12.00;2.63;;;;;;;25.23;38.85;98677.00;5091984;28;20039;-46